Terral, Oklahoma
Current Conditions -  °F | °C
As of 8:55 PM on Friday 21 Nov 2014 (Local Time) from K0F2 Reporting Station
Overcast Overcast  
Wind Chill: 18°   Ceiling: 800
Heat Index: 18°   Visibility: 7mi
Dew Point: 16°   Wind: 9mph
Humidity: 91%   Direction: 140°SE
Pressure: 30.05"   Gusts: NA
Location:  33.9°N, 97.94°W
Report Text: K0F2 220255Z AUTO 14008KT 7SM OVC008 18/16 A3005 RMK AO2 T01760162
Loading
Personal Weather Stations






























Interactive Weather Map New forecast layout! Learn more

10-Day Weather Forecast

Advertisements
Track Severe Weather on mobile